JST451 YSSY-YMML
Flight info
| Callsign | JST451 |
|---|---|
| Flight time | 1h 15m |
| Altitude | 38000 |
| Route | MARUB7/34R WOL DCT CB DCT BOYSE BOYSE9A |
| Aircraft | A320/M-VGDW/C |
Departure
| Time | 2026-05-04 05:09 |
|---|---|
| Airport | Sydney Kingsford Smith International Airport (YSSY) |
Arrival
| Time | 2026-05-04 06:25 |
|---|---|
| Airport | Melbourne Airport (YMML) |
| Time | Latitude | Longitude | Altitude | Speed | Heading |
|---|---|---|---|---|---|
| 2026-05-04 04:22 | -33.93560 | 151.17689 | 31 ft | 0 kts | 98° |
| 2026-05-04 04:54 | -33.93557 | 151.17669 | 30 ft | 3 kts | 98° |
| 2026-05-04 04:55 | -33.93555 | 151.17648 | 30 ft | 3 kts | 98° |
| 2026-05-04 04:55 | -33.93552 | 151.17627 | 30 ft | 3 kts | 110° |
| 2026-05-04 04:55 | -33.93542 | 151.17608 | 29 ft | 3 kts | 148° |
| 2026-05-04 04:55 | -33.93526 | 151.17600 | 29 ft | 2 kts | 178° |
| 2026-05-04 04:58 | -33.93531 | 151.17600 | 29 ft | 1 kts | 177° |
| 2026-05-04 04:59 | -33.93554 | 151.17603 | 28 ft | 5 kts | 174° |
| 2026-05-04 04:59 | -33.93599 | 151.17613 | 28 ft | 8 kts | 167° |
| 2026-05-04 04:59 | -33.93649 | 151.17639 | 29 ft | 8 kts | 150° |
| 2026-05-04 04:59 | -33.93712 | 151.17676 | 29 ft | 14 kts | 161° |
| 2026-05-04 05:00 | -33.93826 | 151.17714 | 19 ft | 19 kts | 151° |
| 2026-05-04 05:00 | -33.93939 | 151.17789 | 22 ft | 19 kts | 168° |
| 2026-05-04 05:00 | -33.94210 | 151.17860 | 24 ft | 21 kts | 166° |
| 2026-05-04 05:01 | -33.94359 | 151.17899 | 24 ft | 21 kts | 169° |
| 2026-05-04 05:01 | -33.94479 | 151.17893 | 26 ft | 19 kts | 204° |
| 2026-05-04 05:01 | -33.94606 | 151.17904 | 26 ft | 19 kts | 168° |
| 2026-05-04 05:01 | -33.94743 | 151.17940 | 23 ft | 21 kts | 171° |
| 2026-05-04 05:02 | -33.94897 | 151.17979 | 22 ft | 24 kts | 168° |
| 2026-05-04 05:02 | -33.95011 | 151.18008 | 25 ft | 12 kts | 168° |
| 2026-05-04 05:02 | -33.95091 | 151.18043 | 27 ft | 13 kts | 136° |
| 2026-05-04 05:02 | -33.95095 | 151.18154 | 25 ft | 15 kts | 80° |
| 2026-05-04 05:03 | -33.95072 | 151.18290 | 24 ft | 16 kts | 77° |
| 2026-05-04 05:03 | -33.95052 | 151.18390 | 25 ft | 10 kts | 77° |
| 2026-05-04 05:04 | -33.95040 | 151.18507 | 26 ft | 3 kts | 156° |
| 2026-05-04 05:04 | -33.95084 | 151.18519 | 26 ft | 10 kts | 162° |
| 2026-05-04 05:04 | -33.95158 | 151.18587 | 25 ft | 16 kts | 137° |
| 2026-05-04 05:06 | -33.96180 | 151.18945 | 24 ft | 29 kts | 167° |
| 2026-05-04 05:06 | -33.96381 | 151.18997 | 22 ft | 31 kts | 168° |
| 2026-05-04 05:06 | -33.96604 | 151.19056 | 18 ft | 29 kts | 168° |
| 2026-05-04 05:07 | -33.96784 | 151.19067 | 17 ft | 25 kts | 184° |
| 2026-05-04 05:07 | -33.96959 | 151.19104 | 18 ft | 27 kts | 167° |
| 2026-05-04 05:07 | -33.97091 | 151.19139 | 19 ft | 18 kts | 165° |
| 2026-05-04 05:09 | -33.95193 | 151.18885 | 146 ft | 154 kts | 348° |
| 2026-05-04 05:09 | -33.94179 | 151.18634 | 762 ft | 144 kts | 9° |
| 2026-05-04 05:10 | -33.93303 | 151.19153 | 1270 ft | 147 kts | 45° |
| 2026-05-04 05:10 | -33.92740 | 151.20249 | 1924 ft | 163 kts | 69° |
| 2026-05-04 05:10 | -33.92785 | 151.21680 | 2477 ft | 187 kts | 108° |
| 2026-05-04 05:10 | -33.93387 | 151.23132 | 3060 ft | 197 kts | 112° |
| 2026-05-04 05:11 | -33.93807 | 151.24679 | 3668 ft | 193 kts | 87° |
| 2026-05-04 05:11 | -33.93795 | 151.26300 | 4251 ft | 195 kts | 83° |
| 2026-05-04 05:11 | -33.93749 | 151.27970 | 4704 ft | 209 kts | 84° |
| 2026-05-04 05:11 | -33.93693 | 151.29817 | 4899 ft | 234 kts | 84° |
| 2026-05-04 05:12 | -33.93627 | 151.31900 | 4953 ft | 266 kts | 85° |
| 2026-05-04 05:12 | -33.93563 | 151.34169 | 4955 ft | 274 kts | 85° |
| 2026-05-04 05:12 | -33.93502 | 151.36465 | 4951 ft | 274 kts | 85° |
| 2026-05-04 05:12 | -33.93438 | 151.38765 | 4949 ft | 275 kts | 84° |
| 2026-05-04 05:13 | -33.93372 | 151.41073 | 4950 ft | 275 kts | 84° |
| 2026-05-04 05:13 | -33.93302 | 151.43378 | 4950 ft | 276 kts | 84° |
| 2026-05-04 05:13 | -33.93234 | 151.45679 | 4948 ft | 275 kts | 84° |
| 2026-05-04 05:13 | -33.93166 | 151.47984 | 4952 ft | 275 kts | 85° |
| 2026-05-04 05:14 | -33.93290 | 151.50240 | 4944 ft | 266 kts | 97° |
| 2026-05-04 05:14 | -33.93870 | 151.52404 | 4946 ft | 279 kts | 112° |
| 2026-05-04 05:14 | -33.94915 | 151.54400 | 4947 ft | 286 kts | 128° |
| 2026-05-04 05:14 | -33.96414 | 151.56031 | 5584 ft | 294 kts | 145° |
| 2026-05-04 05:15 | -33.98222 | 151.57179 | 6599 ft | 294 kts | 160° |
| 2026-05-04 05:15 | -34.00216 | 151.57745 | 7519 ft | 296 kts | 176° |
| 2026-05-04 05:15 | -34.02276 | 151.57644 | 8367 ft | 298 kts | 193° |
| 2026-05-04 05:15 | -34.04245 | 151.56862 | 9183 ft | 299 kts | 210° |
| 2026-05-04 05:16 | -34.05943 | 151.55484 | 9964 ft | 298 kts | 226° |
| 2026-05-04 05:16 | -34.07342 | 151.53590 | 10556 ft | 305 kts | 235° |
| 2026-05-04 05:16 | -34.08685 | 151.51529 | 10753 ft | 328 kts | 235° |
| 2026-05-04 05:16 | -34.10118 | 151.49327 | 11247 ft | 337 kts | 235° |
| 2026-05-04 05:17 | -34.11581 | 151.47084 | 11905 ft | 342 kts | 235° |
| 2026-05-04 05:17 | -34.13069 | 151.44811 | 12607 ft | 346 kts | 235° |
| 2026-05-04 05:17 | -34.14576 | 151.42516 | 13306 ft | 350 kts | 235° |
| 2026-05-04 05:17 | -34.16099 | 151.40202 | 13971 ft | 354 kts | 235° |
| 2026-05-04 05:18 | -34.17637 | 151.37861 | 14589 ft | 357 kts | 236° |
| 2026-05-04 05:18 | -34.19182 | 151.35507 | 15209 ft | 359 kts | 236° |
| 2026-05-04 05:18 | -34.20740 | 151.33127 | 15818 ft | 362 kts | 236° |
| 2026-05-04 05:18 | -34.22309 | 151.30728 | 16439 ft | 364 kts | 236° |
| 2026-05-04 05:19 | -34.23865 | 151.28346 | 17044 ft | 367 kts | 236° |
| 2026-05-04 05:19 | -34.25454 | 151.25909 | 17670 ft | 369 kts | 236° |
| 2026-05-04 05:19 | -34.27049 | 151.23461 | 18295 ft | 372 kts | 237° |
| 2026-05-04 05:19 | -34.28661 | 151.20991 | 18845 ft | 374 kts | 236° |
| 2026-05-04 05:20 | -34.30279 | 151.18514 | 19412 ft | 377 kts | 237° |
| 2026-05-04 05:20 | -34.31911 | 151.16011 | 19999 ft | 379 kts | 237° |
| 2026-05-04 05:20 | -34.33543 | 151.13500 | 20580 ft | 381 kts | 237° |
| 2026-05-04 05:20 | -34.35182 | 151.10973 | 21150 ft | 383 kts | 237° |
| 2026-05-04 05:21 | -34.36832 | 151.08425 | 21701 ft | 385 kts | 237° |
| 2026-05-04 05:21 | -34.38465 | 151.05902 | 22254 ft | 387 kts | 237° |
| 2026-05-04 05:21 | -34.40134 | 151.03326 | 22802 ft | 390 kts | 237° |
| 2026-05-04 05:21 | -34.41812 | 151.00740 | 23346 ft | 392 kts | 237° |
| 2026-05-04 05:22 | -34.43503 | 150.98134 | 23816 ft | 394 kts | 237° |
| 2026-05-04 05:22 | -34.45199 | 150.95517 | 24264 ft | 396 kts | 237° |
| 2026-05-04 05:22 | -34.46906 | 150.92877 | 24708 ft | 397 kts | 237° |
| 2026-05-04 05:22 | -34.48614 | 150.90235 | 25140 ft | 399 kts | 237° |
| 2026-05-04 05:23 | -34.50332 | 150.87579 | 25565 ft | 401 kts | 237° |
| 2026-05-04 05:23 | -34.52057 | 150.84909 | 25999 ft | 403 kts | 237° |
| 2026-05-04 05:23 | -34.53789 | 150.82224 | 26416 ft | 405 kts | 237° |
| 2026-05-04 05:23 | -34.55513 | 150.79517 | 26814 ft | 405 kts | 240° |
| 2026-05-04 05:24 | -34.56985 | 150.76620 | 27201 ft | 403 kts | 245° |
| 2026-05-04 05:24 | -34.58387 | 150.73661 | 27594 ft | 405 kts | 245° |
| 2026-05-04 05:24 | -34.59778 | 150.70724 | 27979 ft | 407 kts | 245° |
| 2026-05-04 05:24 | -34.61211 | 150.67699 | 28376 ft | 409 kts | 245° |
| 2026-05-04 05:25 | -34.62616 | 150.64739 | 28744 ft | 411 kts | 245° |
| 2026-05-04 05:25 | -34.64046 | 150.61723 | 29124 ft | 413 kts | 245° |
| 2026-05-04 05:25 | -34.65486 | 150.58685 | 29451 ft | 416 kts | 245° |
| 2026-05-04 05:25 | -34.66930 | 150.55637 | 29820 ft | 418 kts | 245° |
| 2026-05-04 05:26 | -34.68391 | 150.52555 | 30155 ft | 420 kts | 245° |
| 2026-05-04 05:26 | -34.69857 | 150.49467 | 30460 ft | 422 kts | 245° |
| 2026-05-04 05:26 | -34.71326 | 150.46372 | 30775 ft | 423 kts | 245° |
| 2026-05-04 05:26 | -34.72797 | 150.43266 | 31111 ft | 423 kts | 245° |
| 2026-05-04 05:27 | -34.74239 | 150.40210 | 31569 ft | 420 kts | 246° |
| 2026-05-04 05:28 | -34.84078 | 150.19263 | 35002 ft | 396 kts | 248° |
| 2026-05-04 05:29 | -34.85440 | 150.16352 | 35362 ft | 395 kts | 248° |
| 2026-05-04 05:29 | -34.86798 | 150.13444 | 35714 ft | 394 kts | 248° |
| 2026-05-04 05:29 | -34.88149 | 150.10551 | 36042 ft | 392 kts | 248° |
| 2026-05-04 05:29 | -34.89495 | 150.07669 | 36363 ft | 392 kts | 248° |
| 2026-05-04 05:31 | -34.98847 | 149.87568 | 37998 ft | 390 kts | 249° |
| 2026-05-04 05:31 | -35.00186 | 149.84688 | 38001 ft | 390 kts | 248° |
| 2026-05-04 05:32 | -35.02865 | 149.78913 | 38011 ft | 391 kts | 248° |
| 2026-05-04 05:33 | -35.06857 | 149.70277 | 38010 ft | 391 kts | 248° |
| 2026-05-04 05:33 | -35.09531 | 149.64470 | 38014 ft | 392 kts | 248° |
| 2026-05-04 05:34 | -35.12213 | 149.58646 | 38022 ft | 393 kts | 249° |
| 2026-05-04 05:34 | -35.14891 | 149.52817 | 38030 ft | 394 kts | 249° |
| 2026-05-04 05:35 | -35.17578 | 149.46966 | 38037 ft | 394 kts | 248° |
| 2026-05-04 05:35 | -35.20245 | 149.41152 | 38044 ft | 395 kts | 249° |
| 2026-05-04 05:36 | -35.23249 | 149.35470 | 38048 ft | 403 kts | 241° |
| 2026-05-04 05:36 | -35.26668 | 149.30019 | 38054 ft | 404 kts | 241° |
| 2026-05-04 05:37 | -35.30102 | 149.24560 | 38057 ft | 405 kts | 241° |
| 2026-05-04 05:37 | -35.33534 | 149.19102 | 38059 ft | 405 kts | 241° |
| 2026-05-04 05:38 | -35.38682 | 149.10890 | 38059 ft | 405 kts | 241° |
| 2026-05-04 05:38 | -35.42084 | 149.05414 | 38046 ft | 405 kts | 241° |
| 2026-05-04 05:39 | -35.47192 | 148.97191 | 38045 ft | 406 kts | 241° |
| 2026-05-04 05:40 | -35.52359 | 148.88955 | 38035 ft | 406 kts | 240° |
| 2026-05-04 05:40 | -35.55845 | 148.83485 | 38031 ft | 407 kts | 241° |
| 2026-05-04 05:41 | -35.59287 | 148.77963 | 38032 ft | 407 kts | 242° |
| 2026-05-04 05:41 | -35.62708 | 148.72403 | 38035 ft | 407 kts | 242° |
| 2026-05-04 05:42 | -35.66131 | 148.66850 | 38037 ft | 408 kts | 242° |
| 2026-05-04 05:42 | -35.69564 | 148.61293 | 38039 ft | 408 kts | 242° |
| 2026-05-04 05:43 | -35.72970 | 148.55757 | 38040 ft | 408 kts | 242° |
| 2026-05-04 05:45 | -35.86710 | 148.33339 | 38051 ft | 411 kts | 242° |
| 2026-05-04 05:47 | -36.00469 | 148.10751 | 38053 ft | 413 kts | 242° |
| 2026-05-04 05:47 | -36.03918 | 148.05076 | 38048 ft | 413 kts | 242° |
| 2026-05-04 05:48 | -36.07365 | 147.99382 | 38058 ft | 414 kts | 242° |
| 2026-05-04 05:48 | -36.10809 | 147.93678 | 38055 ft | 414 kts | 242° |
| 2026-05-04 05:49 | -36.14239 | 147.87990 | 38054 ft | 415 kts | 242° |
| 2026-05-04 05:49 | -36.17688 | 147.82266 | 38048 ft | 415 kts | 243° |
| 2026-05-04 05:51 | -36.30939 | 147.60172 | 38007 ft | 420 kts | 242° |
| 2026-05-04 05:52 | -36.34427 | 147.54348 | 38009 ft | 421 kts | 242° |
| 2026-05-04 05:52 | -36.37925 | 147.48483 | 38014 ft | 422 kts | 243° |
| 2026-05-04 05:54 | -36.51884 | 147.24982 | 38021 ft | 424 kts | 242° |
| 2026-05-04 05:55 | -36.55384 | 147.19073 | 38023 ft | 424 kts | 242° |
| 2026-05-04 05:55 | -36.58872 | 147.13166 | 38022 ft | 424 kts | 242° |
| 2026-05-04 05:56 | -36.60622 | 147.10194 | 37808 ft | 425 kts | 242° |
| 2026-05-04 05:56 | -36.62368 | 147.07231 | 37551 ft | 424 kts | 242° |
| 2026-05-04 05:56 | -36.64117 | 147.04262 | 37295 ft | 425 kts | 242° |
| 2026-05-04 05:56 | -36.65839 | 147.01335 | 37039 ft | 425 kts | 242° |
| 2026-05-04 05:57 | -36.67608 | 146.98322 | 36784 ft | 426 kts | 242° |
| 2026-05-04 05:57 | -36.69358 | 146.95336 | 36546 ft | 426 kts | 243° |
| 2026-05-04 05:57 | -36.71111 | 146.92348 | 36302 ft | 427 kts | 243° |
| 2026-05-04 05:57 | -36.72842 | 146.89400 | 36060 ft | 426 kts | 243° |
| 2026-05-04 05:58 | -36.74595 | 146.86415 | 35822 ft | 425 kts | 243° |
| 2026-05-04 05:58 | -36.76331 | 146.83454 | 35562 ft | 421 kts | 243° |
| 2026-05-04 05:58 | -36.78056 | 146.80510 | 35112 ft | 418 kts | 243° |
| 2026-05-04 05:58 | -36.79767 | 146.77583 | 34672 ft | 416 kts | 243° |
| 2026-05-04 05:59 | -36.81471 | 146.74658 | 34217 ft | 415 kts | 244° |
| 2026-05-04 05:59 | -36.83169 | 146.71736 | 33722 ft | 414 kts | 244° |
| 2026-05-04 05:59 | -36.84860 | 146.68831 | 33257 ft | 411 kts | 244° |
| 2026-05-04 05:59 | -36.86534 | 146.65956 | 32810 ft | 408 kts | 244° |
| 2026-05-04 06:00 | -36.88195 | 146.63105 | 32355 ft | 405 kts | 244° |
| 2026-05-04 06:00 | -36.89849 | 146.60265 | 31906 ft | 403 kts | 244° |
| 2026-05-04 06:00 | -36.91492 | 146.57438 | 31472 ft | 400 kts | 244° |
| 2026-05-04 06:00 | -36.93120 | 146.54630 | 31033 ft | 398 kts | 244° |
| 2026-05-04 06:01 | -36.94738 | 146.51834 | 30608 ft | 396 kts | 244° |
| 2026-05-04 06:01 | -36.96346 | 146.49053 | 30192 ft | 394 kts | 244° |
| 2026-05-04 06:03 | -37.07297 | 146.30091 | 27401 ft | 376 kts | 244° |
| 2026-05-04 06:03 | -37.08823 | 146.27435 | 27016 ft | 374 kts | 244° |
| 2026-05-04 06:05 | -37.19281 | 146.09185 | 24191 ft | 366 kts | 244° |
| 2026-05-04 06:05 | -37.22248 | 146.03996 | 23300 ft | 366 kts | 244° |
| 2026-05-04 06:05 | -37.23728 | 146.01407 | 22859 ft | 364 kts | 244° |
| 2026-05-04 06:06 | -37.25195 | 145.98839 | 22429 ft | 361 kts | 243° |
| 2026-05-04 06:06 | -37.26654 | 145.96285 | 22006 ft | 358 kts | 243° |
| 2026-05-04 06:06 | -37.28099 | 145.93755 | 21579 ft | 355 kts | 243° |
| 2026-05-04 06:06 | -37.29532 | 145.91244 | 21168 ft | 352 kts | 243° |
| 2026-05-04 06:07 | -37.30950 | 145.88754 | 20753 ft | 350 kts | 243° |
| 2026-05-04 06:07 | -37.32357 | 145.86273 | 20327 ft | 347 kts | 242° |
| 2026-05-04 06:07 | -37.33751 | 145.83816 | 19921 ft | 343 kts | 242° |
| 2026-05-04 06:07 | -37.35129 | 145.81385 | 19509 ft | 340 kts | 242° |
| 2026-05-04 06:08 | -37.36499 | 145.78963 | 19104 ft | 339 kts | 241° |
| 2026-05-04 06:08 | -37.37862 | 145.76548 | 18695 ft | 338 kts | 241° |
| 2026-05-04 06:08 | -37.39217 | 145.74148 | 18295 ft | 336 kts | 241° |
| 2026-05-04 06:08 | -37.40570 | 145.71756 | 17855 ft | 334 kts | 240° |
| 2026-05-04 06:09 | -37.41912 | 145.69388 | 17445 ft | 331 kts | 240° |
| 2026-05-04 06:09 | -37.43241 | 145.67038 | 17050 ft | 327 kts | 240° |
| 2026-05-04 06:11 | -37.52365 | 145.51262 | 14309 ft | 312 kts | 239° |
| 2026-05-04 06:11 | -37.53646 | 145.49058 | 13923 ft | 311 kts | 238° |
| 2026-05-04 06:13 | -37.62360 | 145.34005 | 11212 ft | 298 kts | 239° |
| 2026-05-04 06:14 | -37.69417 | 145.21766 | 9114 ft | 273 kts | 241° |
| 2026-05-04 06:14 | -37.70518 | 145.19852 | 8585 ft | 269 kts | 241° |
| 2026-05-04 06:15 | -37.71619 | 145.17933 | 7964 ft | 269 kts | 241° |
| 2026-05-04 06:15 | -37.72714 | 145.16022 | 7378 ft | 268 kts | 242° |
| 2026-05-04 06:15 | -37.73800 | 145.14125 | 6919 ft | 262 kts | 242° |
| 2026-05-04 06:15 | -37.74832 | 145.12337 | 6671 ft | 250 kts | 242° |
| 2026-05-04 06:16 | -37.75844 | 145.10582 | 6557 ft | 246 kts | 242° |
| 2026-05-04 06:16 | -37.76844 | 145.08832 | 6438 ft | 245 kts | 243° |
| 2026-05-04 06:16 | -37.77845 | 145.07077 | 6157 ft | 249 kts | 243° |
| 2026-05-04 06:16 | -37.78864 | 145.05284 | 5754 ft | 250 kts | 242° |
| 2026-05-04 06:17 | -37.79878 | 145.03516 | 5245 ft | 249 kts | 242° |
| 2026-05-04 06:17 | -37.80874 | 145.01740 | 4803 ft | 243 kts | 247° |
| 2026-05-04 06:17 | -37.81544 | 144.99824 | 4230 ft | 234 kts | 263° |
| 2026-05-04 06:17 | -37.81891 | 144.97845 | 3791 ft | 227 kts | 265° |
| 2026-05-04 06:18 | -37.82221 | 144.95970 | 3682 ft | 211 kts | 266° |
| 2026-05-04 06:18 | -37.82537 | 144.94177 | 3603 ft | 207 kts | 266° |
| 2026-05-04 06:18 | -37.82791 | 144.92400 | 3497 ft | 203 kts | 269° |
| 2026-05-04 06:20 | -37.78892 | 144.86020 | 2401 ft | 149 kts | 349° |
| 2026-05-04 06:20 | -37.77927 | 144.85844 | 2223 ft | 135 kts | 348° |
| 2026-05-04 06:21 | -37.74345 | 144.85172 | 1510 ft | 127 kts | 348° |
| 2026-05-04 06:21 | -37.73471 | 144.85008 | 1342 ft | 126 kts | 349° |
| 2026-05-04 06:22 | -37.72612 | 144.84846 | 1170 ft | 127 kts | 351° |
| 2026-05-04 06:22 | -37.71716 | 144.84684 | 1014 ft | 128 kts | 354° |
| 2026-05-04 06:25 | -37.66829 | 144.83918 | 393 ft | 0 kts | 19° |
| 2026-05-04 06:25 | -37.66824 | 144.83920 | 396 ft | 1 kts | 19° |
| 2026-05-04 06:26 | -37.66812 | 144.83925 | 394 ft | 2 kts | 18° |
| 2026-05-04 06:26 | -37.66797 | 144.83934 | 394 ft | 3 kts | 27° |
| 2026-05-04 06:26 | -37.66776 | 144.83948 | 399 ft | 4 kts | 28° |
| 2026-05-04 06:26 | -37.66753 | 144.83968 | 399 ft | 4 kts | 44° |
| 2026-05-04 06:27 | -37.66759 | 144.84174 | 401 ft | 10 kts | 132° |
| 2026-05-04 06:28 | -37.66837 | 144.84200 | 399 ft | 14 kts | 172° |
| 2026-05-04 06:28 | -37.66955 | 144.84222 | 395 ft | 19 kts | 170° |
| 2026-05-04 06:28 | -37.67102 | 144.84250 | 389 ft | 21 kts | 171° |
| 2026-05-04 06:28 | -37.67236 | 144.84275 | 385 ft | 21 kts | 174° |
| 2026-05-04 06:29 | -37.67374 | 144.84302 | 380 ft | 18 kts | 170° |
| 2026-05-04 06:29 | -37.67443 | 144.84351 | 378 ft | 10 kts | 91° |
| 2026-05-04 06:29 | -37.67415 | 144.84417 | 380 ft | 9 kts | 30° |